sensor_id;sensor_type;location;lat;lon;timestamp;P1;durP1;ratioP1;P2;durP2;ratioP2
75793;SDS011;64418;47.536;19.074;2023-02-11T00:02:22;39.30;;;16.90;;
75793;SDS011;64418;47.536;19.074;2023-02-11T00:04:48;41.42;;;17.23;;
75793;SDS011;64418;47.536;19.074;2023-02-11T00:07:14;39.65;;;16.95;;
75793;SDS011;64418;47.536;19.074;2023-02-11T00:10:00;41.33;;;18.55;;
75793;SDS011;64418;47.536;19.074;2023-02-11T00:12:26;40.77;;;17.10;;
75793;SDS011;64418;47.536;19.074;2023-02-11T00:15:13;40.00;;;16.92;;
75793;SDS011;64418;47.536;19.074;2023-02-11T00:17:38;39.28;;;16.30;;
75793;SDS011;64418;47.536;19.074;2023-02-11T00:20:04;38.63;;;17.63;;
75793;SDS011;64418;47.536;19.074;2023-02-11T00:22:50;35.87;;;16.37;;
75793;SDS011;64418;47.536;19.074;2023-02-11T00:25:16;38.05;;;17.20;;
75793;SDS011;64418;47.536;19.074;2023-02-11T00:27:42;41.90;;;18.30;;
75793;SDS011;64418;47.536;19.074;2023-02-11T00:30:08;43.85;;;18.08;;
75793;SDS011;64418;47.536;19.074;2023-02-11T00:32:37;40.22;;;17.65;;
75793;SDS011;64418;47.536;19.074;2023-02-11T00:35:23;46.67;;;19.47;;
75793;SDS011;64418;47.536;19.074;2023-02-11T00:37:48;41.08;;;17.87;;
75793;SDS011;64418;47.536;19.074;2023-02-11T00:40:14;40.97;;;17.20;;
75793;SDS011;64418;47.536;19.074;2023-02-11T00:43:00;46.80;;;19.67;;
75793;SDS011;64418;47.536;19.074;2023-02-11T00:45:25;45.88;;;18.70;;
75793;SDS011;64418;47.536;19.074;2023-02-11T00:48:12;45.15;;;18.67;;
75793;SDS011;64418;47.536;19.074;2023-02-11T00:50:38;41.43;;;17.60;;
75793;SDS011;64418;47.536;19.074;2023-02-11T00:53:04;42.80;;;17.92;;
75793;SDS011;64418;47.536;19.074;2023-02-11T00:55:30;44.17;;;19.12;;
75793;SDS011;64418;47.536;19.074;2023-02-11T00:57:56;41.63;;;18.77;;
75793;SDS011;64418;47.536;19.074;2023-02-11T01:00:21;42.73;;;18.10;;
75793;SDS011;64418;47.536;19.074;2023-02-11T01:02:47;44.92;;;18.95;;
75793;SDS011;64418;47.536;19.074;2023-02-11T01:05:34;44.67;;;18.47;;
75793;SDS011;64418;47.536;19.074;2023-02-11T01:08:00;41.97;;;18.45;;
75793;SDS011;64418;47.536;19.074;2023-02-11T01:10:29;43.40;;;18.52;;
75793;SDS011;64418;47.536;19.074;2023-02-11T01:12:56;46.75;;;19.40;;
75793;SDS011;64418;47.536;19.074;2023-02-11T01:15:22;41.33;;;18.20;;
75793;SDS011;64418;47.536;19.074;2023-02-11T01:17:47;48.00;;;18.87;;
75793;SDS011;64418;47.536;19.074;2023-02-11T01:20:14;44.05;;;19.58;;
75793;SDS011;64418;47.536;19.074;2023-02-11T01:22:43;45.10;;;19.83;;
75793;SDS011;64418;47.536;19.074;2023-02-11T01:25:09;44.37;;;18.97;;
75793;SDS011;64418;47.536;19.074;2023-02-11T01:27:35;42.83;;;18.50;;
75793;SDS011;64418;47.536;19.074;2023-02-11T01:30:02;44.85;;;18.80;;
75793;SDS011;64418;47.536;19.074;2023-02-11T01:32:28;43.90;;;19.08;;
75793;SDS011;64418;47.536;19.074;2023-02-11T01:34:54;42.27;;;19.47;;
75793;SDS011;64418;47.536;19.074;2023-02-11T01:37:40;50.53;;;19.35;;
75793;SDS011;64418;47.536;19.074;2023-02-11T01:40:11;43.75;;;19.10;;
75793;SDS011;64418;47.536;19.074;2023-02-11T01:42:39;43.08;;;18.83;;
75793;SDS011;64418;47.536;19.074;2023-02-11T01:48:03;48.28;;;20.05;;
75793;SDS011;64418;47.536;19.074;2023-02-11T01:50:29;51.35;;;19.20;;
75793;SDS011;64418;47.536;19.074;2023-02-11T01:52:56;48.78;;;19.52;;
75793;SDS011;64418;47.536;19.074;2023-02-11T01:55:23;49.73;;;18.93;;
75793;SDS011;64418;47.536;19.074;2023-02-11T01:57:50;46.00;;;18.95;;
75793;SDS011;64418;47.536;19.074;2023-02-11T02:00:19;44.08;;;19.23;;
75793;SDS011;64418;47.536;19.074;2023-02-11T02:02:48;49.17;;;20.48;;
75793;SDS011;64418;47.536;19.074;2023-02-11T02:05:21;46.20;;;19.37;;
75793;SDS011;64418;47.536;19.074;2023-02-11T02:07:55;47.67;;;19.90;;
75793;SDS011;64418;47.536;19.074;2023-02-11T02:10:29;45.33;;;18.67;;
75793;SDS011;64418;47.536;19.074;2023-02-11T02:12:58;43.47;;;19.20;;
75793;SDS011;64418;47.536;19.074;2023-02-11T02:15:45;43.22;;;18.40;;
75793;SDS011;64418;47.536;19.074;2023-02-11T02:18:18;41.50;;;19.15;;
75793;SDS011;64418;47.536;19.074;2023-02-11T02:21:13;47.00;;;20.23;;
75793;SDS011;64418;47.536;19.074;2023-02-11T02:27:47;41.78;;;17.95;;
75793;SDS011;64418;47.536;19.074;2023-02-11T02:36:17;46.13;;;19.13;;
75793;SDS011;64418;47.536;19.074;2023-02-11T02:38:50;50.15;;;19.87;;
75793;SDS011;64418;47.536;19.074;2023-02-11T02:41:20;44.85;;;19.23;;
75793;SDS011;64418;47.536;19.074;2023-02-11T02:43:51;52.30;;;21.55;;
75793;SDS011;64418;47.536;19.074;2023-02-11T02:46:18;48.60;;;20.77;;
75793;SDS011;64418;47.536;19.074;2023-02-11T02:48:50;48.77;;;20.70;;
75793;SDS011;64418;47.536;19.074;2023-02-11T02:51:24;51.25;;;21.92;;
75793;SDS011;64418;47.536;19.074;2023-02-11T02:54:01;52.22;;;20.55;;
75793;SDS011;64418;47.536;19.074;2023-02-11T02:56:45;41.53;;;18.60;;
75793;SDS011;64418;47.536;19.074;2023-02-11T02:59:26;45.22;;;18.98;;
75793;SDS011;64418;47.536;19.074;2023-02-11T03:02:23;46.03;;;16.93;;
75793;SDS011;64418;47.536;19.074;2023-02-11T03:05:15;44.13;;;16.87;;
75793;SDS011;64418;47.536;19.074;2023-02-11T03:07:47;42.15;;;17.83;;
75793;SDS011;64418;47.536;19.074;2023-02-11T03:10:20;48.25;;;19.80;;
75793;SDS011;64418;47.536;19.074;2023-02-11T03:12:50;44.08;;;19.25;;
75793;SDS011;64418;47.536;19.074;2023-02-11T03:15:18;44.47;;;18.77;;
75793;SDS011;64418;47.536;19.074;2023-02-11T03:17:47;43.22;;;17.67;;
75793;SDS011;64418;47.536;19.074;2023-02-11T03:20:18;42.00;;;17.23;;
75793;SDS011;64418;47.536;19.074;2023-02-11T03:22:47;46.10;;;19.37;;
75793;SDS011;64418;47.536;19.074;2023-02-11T03:25:16;44.05;;;18.23;;
75793;SDS011;64418;47.536;19.074;2023-02-11T03:27:43;44.47;;;18.27;;
75793;SDS011;64418;47.536;19.074;2023-02-11T03:30:16;43.53;;;17.12;;
75793;SDS011;64418;47.536;19.074;2023-02-11T03:32:47;49.97;;;19.02;;
75793;SDS011;64418;47.536;19.074;2023-02-11T03:35:16;40.58;;;17.80;;
75793;SDS011;64418;47.536;19.074;2023-02-11T03:37:50;44.50;;;18.45;;
75793;SDS011;64418;47.536;19.074;2023-02-11T03:40:20;43.40;;;17.87;;
75793;SDS011;64418;47.536;19.074;2023-02-11T03:42:49;44.13;;;19.17;;
75793;SDS011;64418;47.536;19.074;2023-02-11T03:45:19;41.78;;;19.30;;
75793;SDS011;64418;47.536;19.074;2023-02-11T03:47:47;45.63;;;17.65;;
75793;SDS011;64418;47.536;19.074;2023-02-11T03:50:17;47.67;;;18.23;;
75793;SDS011;64418;47.536;19.074;2023-02-11T03:52:50;44.00;;;18.40;;
75793;SDS011;64418;47.536;19.074;2023-02-11T03:55:19;41.05;;;18.05;;
75793;SDS011;64418;47.536;19.074;2023-02-11T03:57:47;48.83;;;19.50;;
75793;SDS011;64418;47.536;19.074;2023-02-11T04:00:13;43.92;;;20.02;;
75793;SDS011;64418;47.536;19.074;2023-02-11T04:02:40;43.17;;;19.45;;
75793;SDS011;64418;47.536;19.074;2023-02-11T04:05:07;43.93;;;19.50;;
75793;SDS011;64418;47.536;19.074;2023-02-11T04:07:35;44.05;;;18.27;;
75793;SDS011;64418;47.536;19.074;2023-02-11T04:10:04;48.80;;;18.95;;
75793;SDS011;64418;47.536;19.074;2023-02-11T04:12:31;47.50;;;19.42;;
75793;SDS011;64418;47.536;19.074;2023-02-11T04:14:56;44.60;;;18.00;;
75793;SDS011;64418;47.536;19.074;2023-02-11T04:17:22;50.00;;;19.48;;
75793;SDS011;64418;47.536;19.074;2023-02-11T04:19:47;56.33;;;20.70;;
75793;SDS011;64418;47.536;19.074;2023-02-11T04:22:37;46.00;;;18.75;;
75793;SDS011;64418;47.536;19.074;2023-02-11T04:25:03;50.03;;;19.15;;
75793;SDS011;64418;47.536;19.074;2023-02-11T04:27:50;45.80;;;19.87;;
75793;SDS011;64418;47.536;19.074;2023-02-11T04:30:15;49.60;;;20.20;;
75793;SDS011;64418;47.536;19.074;2023-02-11T04:32:41;49.47;;;20.40;;
75793;SDS011;64418;47.536;19.074;2023-02-11T04:35:07;53.53;;;21.13;;
75793;SDS011;64418;47.536;19.074;2023-02-11T04:37:33;46.55;;;21.25;;
75793;SDS011;64418;47.536;19.074;2023-02-11T04:40:00;51.37;;;21.83;;
75793;SDS011;64418;47.536;19.074;2023-02-11T04:42:25;54.40;;;21.47;;
75793;SDS011;64418;47.536;19.074;2023-02-11T04:44:51;55.10;;;22.27;;
75793;SDS011;64418;47.536;19.074;2023-02-11T04:47:17;57.28;;;23.15;;
75793;SDS011;64418;47.536;19.074;2023-02-11T04:49:43;47.27;;;21.37;;
75793;SDS011;64418;47.536;19.074;2023-02-11T04:52:09;53.83;;;23.17;;
75793;SDS011;64418;47.536;19.074;2023-02-11T04:54:38;53.30;;;23.08;;
75793;SDS011;64418;47.536;19.074;2023-02-11T04:57:05;48.38;;;21.50;;
75793;SDS011;64418;47.536;19.074;2023-02-11T04:59:31;59.60;;;22.58;;
75793;SDS011;64418;47.536;19.074;2023-02-11T05:01:57;56.63;;;23.43;;
75793;SDS011;64418;47.536;19.074;2023-02-11T05:04:22;53.37;;;24.37;;
75793;SDS011;64418;47.536;19.074;2023-02-11T05:06:48;58.73;;;24.60;;
75793;SDS011;64418;47.536;19.074;2023-02-11T05:09:14;62.53;;;25.77;;
75793;SDS011;64418;47.536;19.074;2023-02-11T05:11:40;57.40;;;25.95;;
75793;SDS011;64418;47.536;19.074;2023-02-11T05:14:07;50.63;;;23.47;;
75793;SDS011;64418;47.536;19.074;2023-02-11T05:16:36;51.67;;;24.07;;
75793;SDS011;64418;47.536;19.074;2023-02-11T05:19:02;58.00;;;23.45;;
75793;SDS011;64418;47.536;19.074;2023-02-11T05:21:28;60.95;;;24.75;;
75793;SDS011;64418;47.536;19.074;2023-02-11T05:23:54;63.53;;;26.60;;
75793;SDS011;64418;47.536;19.074;2023-02-11T05:26:19;55.87;;;25.13;;
75793;SDS011;64418;47.536;19.074;2023-02-11T05:28:45;61.53;;;25.00;;
75793;SDS011;64418;47.536;19.074;2023-02-11T05:31:13;56.45;;;24.65;;
75793;SDS011;64418;47.536;19.074;2023-02-11T05:33:38;60.00;;;24.37;;
75793;SDS011;64418;47.536;19.074;2023-02-11T05:36:05;59.35;;;26.30;;
75793;SDS011;64418;47.536;19.074;2023-02-11T05:38:53;58.85;;;24.25;;
75793;SDS011;64418;47.536;19.074;2023-02-11T05:41:19;55.10;;;25.07;;
75793;SDS011;64418;47.536;19.074;2023-02-11T05:43:46;67.22;;;25.75;;
75793;SDS011;64418;47.536;19.074;2023-02-11T05:46:14;56.70;;;25.23;;
75793;SDS011;64418;47.536;19.074;2023-02-11T05:48:59;63.40;;;24.85;;
75793;SDS011;64418;47.536;19.074;2023-02-11T05:51:25;58.97;;;24.63;;
75793;SDS011;64418;47.536;19.074;2023-02-11T05:53:51;59.70;;;25.45;;
75793;SDS011;64418;47.536;19.074;2023-02-11T05:56:17;56.47;;;23.70;;
75793;SDS011;64418;47.536;19.074;2023-02-11T05:58:42;63.10;;;25.60;;
75793;SDS011;64418;47.536;19.074;2023-02-11T06:01:08;63.60;;;25.85;;
75793;SDS011;64418;47.536;19.074;2023-02-11T06:03:36;54.33;;;24.17;;
75793;SDS011;64418;47.536;19.074;2023-02-11T06:06:22;64.70;;;23.08;;
75793;SDS011;64418;47.536;19.074;2023-02-11T06:08:47;54.40;;;25.17;;
75793;SDS011;64418;47.536;19.074;2023-02-11T06:11:33;59.20;;;24.17;;
75793;SDS011;64418;47.536;19.074;2023-02-11T06:13:59;53.87;;;23.60;;
75793;SDS011;64418;47.536;19.074;2023-02-11T06:16:25;60.20;;;25.30;;
75793;SDS011;64418;47.536;19.074;2023-02-11T06:19:15;67.35;;;25.52;;
75793;SDS011;64418;47.536;19.074;2023-02-11T06:22:01;56.20;;;24.50;;
75793;SDS011;64418;47.536;19.074;2023-02-11T06:24:27;57.17;;;22.63;;
75793;SDS011;64418;47.536;19.074;2023-02-11T06:27:13;54.15;;;23.00;;
75793;SDS011;64418;47.536;19.074;2023-02-11T06:29:38;57.10;;;22.17;;
75793;SDS011;64418;47.536;19.074;2023-02-11T06:32:04;53.90;;;21.23;;
75793;SDS011;64418;47.536;19.074;2023-02-11T06:34:51;60.05;;;24.87;;
75793;SDS011;64418;47.536;19.074;2023-02-11T06:37:17;55.20;;;23.08;;
75793;SDS011;64418;47.536;19.074;2023-02-11T06:40:03;57.97;;;24.42;;
75793;SDS011;64418;47.536;19.074;2023-02-11T06:42:29;57.63;;;25.23;;
75793;SDS011;64418;47.536;19.074;2023-02-11T06:44:55;58.03;;;25.00;;
75793;SDS011;64418;47.536;19.074;2023-02-11T06:47:41;64.32;;;26.25;;
75793;SDS011;64418;47.536;19.074;2023-02-11T06:50:10;56.42;;;23.75;;
75793;SDS011;64418;47.536;19.074;2023-02-11T06:52:38;54.25;;;24.55;;
75793;SDS011;64418;47.536;19.074;2023-02-11T06:55:24;61.63;;;25.07;;
75793;SDS011;64418;47.536;19.074;2023-02-11T06:58:09;59.85;;;23.60;;
75793;SDS011;64418;47.536;19.074;2023-02-11T07:00:36;61.22;;;25.08;;
75793;SDS011;64418;47.536;19.074;2023-02-11T07:03:21;60.25;;;25.23;;
75793;SDS011;64418;47.536;19.074;2023-02-11T07:05:49;54.27;;;24.83;;
75793;SDS011;64418;47.536;19.074;2023-02-11T07:08:15;60.45;;;25.05;;
75793;SDS011;64418;47.536;19.074;2023-02-11T07:10:40;56.47;;;26.42;;
75793;SDS011;64418;47.536;19.074;2023-02-11T07:13:06;59.93;;;25.40;;
75793;SDS011;64418;47.536;19.074;2023-02-11T07:15:52;61.75;;;26.15;;
75793;SDS011;64418;47.536;19.074;2023-02-11T07:18:17;60.85;;;26.73;;
75793;SDS011;64418;47.536;19.074;2023-02-11T07:20:43;62.23;;;26.93;;
75793;SDS011;64418;47.536;19.074;2023-02-11T07:23:11;65.10;;;27.77;;
75793;SDS011;64418;47.536;19.074;2023-02-11T07:25:36;57.42;;;26.52;;
75793;SDS011;64418;47.536;19.074;2023-02-11T07:28:22;69.07;;;26.92;;
75793;SDS011;64418;47.536;19.074;2023-02-11T07:30:51;70.07;;;28.53;;
75793;SDS011;64418;47.536;19.074;2023-02-11T07:33:16;62.95;;;28.52;;
75793;SDS011;64418;47.536;19.074;2023-02-11T07:36:03;63.08;;;28.50;;
75793;SDS011;64418;47.536;19.074;2023-02-11T07:38:54;55.35;;;26.12;;
75793;SDS011;64418;47.536;19.074;2023-02-11T07:41:44;57.87;;;26.23;;
75793;SDS011;64418;47.536;19.074;2023-02-11T07:44:29;60.65;;;27.90;;
75793;SDS011;64418;47.536;19.074;2023-02-11T07:46:55;56.95;;;26.98;;
75793;SDS011;64418;47.536;19.074;2023-02-11T07:49:41;57.28;;;25.70;;
75793;SDS011;64418;47.536;19.074;2023-02-11T07:52:07;61.15;;;27.30;;
75793;SDS011;64418;47.536;19.074;2023-02-11T07:54:55;59.07;;;27.07;;
75793;SDS011;64418;47.536;19.074;2023-02-11T07:57:40;53.03;;;25.77;;
75793;SDS011;64418;47.536;19.074;2023-02-11T08:00:06;52.22;;;25.27;;
75793;SDS011;64418;47.536;19.074;2023-02-11T08:02:53;61.53;;;26.92;;
75793;SDS011;64418;47.536;19.074;2023-02-11T08:05:40;64.67;;;29.93;;
75793;SDS011;64418;47.536;19.074;2023-02-11T08:08:12;56.60;;;26.98;;
75793;SDS011;64418;47.536;19.074;2023-02-11T08:10:41;65.62;;;28.85;;
75793;SDS011;64418;47.536;19.074;2023-02-11T08:13:07;61.30;;;28.43;;
75793;SDS011;64418;47.536;19.074;2023-02-11T08:15:53;59.08;;;27.02;;
75793;SDS011;64418;47.536;19.074;2023-02-11T08:18:22;60.22;;;26.95;;
75793;SDS011;64418;47.536;19.074;2023-02-11T08:20:47;66.00;;;29.73;;
75793;SDS011;64418;47.536;19.074;2023-02-11T08:23:13;62.85;;;27.50;;
75793;SDS011;64418;47.536;19.074;2023-02-11T08:25:40;59.00;;;26.93;;
75793;SDS011;64418;47.536;19.074;2023-02-11T08:28:06;59.67;;;25.23;;
75793;SDS011;64418;47.536;19.074;2023-02-11T08:30:32;40.60;;;19.85;;
75793;SDS011;64418;47.536;19.074;2023-02-11T08:32:57;29.20;;;13.67;;
75793;SDS011;64418;47.536;19.074;2023-02-11T08:35:43;38.63;;;17.05;;
75793;SDS011;64418;47.536;19.074;2023-02-11T08:38:29;36.30;;;16.60;;
75793;SDS011;64418;47.536;19.074;2023-02-11T08:40:57;33.90;;;13.68;;
75793;SDS011;64418;47.536;19.074;2023-02-11T08:43:45;31.20;;;13.77;;
75793;SDS011;64418;47.536;19.074;2023-02-11T08:46:30;29.02;;;13.62;;
75793;SDS011;64418;47.536;19.074;2023-02-11T08:48:56;29.15;;;13.05;;
75793;SDS011;64418;47.536;19.074;2023-02-11T08:51:43;27.83;;;12.55;;
75793;SDS011;64418;47.536;19.074;2023-02-11T08:54:29;30.85;;;14.15;;
75793;SDS011;64418;47.536;19.074;2023-02-11T08:56:57;37.17;;;15.17;;
75793;SDS011;64418;47.536;19.074;2023-02-11T08:59:43;26.15;;;13.65;;
75793;SDS011;64418;47.536;19.074;2023-02-11T09:02:10;31.83;;;14.23;;
75793;SDS011;64418;47.536;19.074;2023-02-11T09:04:36;33.90;;;14.35;;
75793;SDS011;64418;47.536;19.074;2023-02-11T09:07:02;27.73;;;13.63;;
75793;SDS011;64418;47.536;19.074;2023-02-11T09:09:30;32.43;;;13.63;;
75793;SDS011;64418;47.536;19.074;2023-02-11T09:11:57;32.70;;;12.57;;
75793;SDS011;64418;47.536;19.074;2023-02-11T09:14:24;36.05;;;15.13;;
75793;SDS011;64418;47.536;19.074;2023-02-11T09:16:49;32.85;;;14.48;;
75793;SDS011;64418;47.536;19.074;2023-02-11T09:19:16;31.77;;;14.47;;
75793;SDS011;64418;47.536;19.074;2023-02-11T09:22:02;30.67;;;14.35;;
75793;SDS011;64418;47.536;19.074;2023-02-11T09:24:28;32.53;;;15.53;;
75793;SDS011;64418;47.536;19.074;2023-02-11T09:26:54;29.17;;;14.17;;
75793;SDS011;64418;47.536;19.074;2023-02-11T09:29:41;27.53;;;13.83;;
75793;SDS011;64418;47.536;19.074;2023-02-11T09:32:07;31.10;;;15.18;;
75793;SDS011;64418;47.536;19.074;2023-02-11T09:34:33;34.17;;;14.85;;
75793;SDS011;64418;47.536;19.074;2023-02-11T09:36:59;32.28;;;14.55;;
75793;SDS011;64418;47.536;19.074;2023-02-11T09:39:28;31.07;;;15.93;;
75793;SDS011;64418;47.536;19.074;2023-02-11T09:45:22;39.85;;;16.40;;
75793;SDS011;64418;47.536;19.074;2023-02-11T09:47:51;31.15;;;16.05;;
75793;SDS011;64418;47.536;19.074;2023-02-11T09:50:21;32.28;;;16.08;;
75793;SDS011;64418;47.536;19.074;2023-02-11T09:53:12;31.57;;;15.83;;
75793;SDS011;64418;47.536;19.074;2023-02-11T09:56:08;29.83;;;15.77;;
75793;SDS011;64418;47.536;19.074;2023-02-11T09:58:37;34.10;;;16.87;;
75793;SDS011;64418;47.536;19.074;2023-02-11T10:01:12;33.17;;;16.73;;
75793;SDS011;64418;47.536;19.074;2023-02-11T10:03:52;30.12;;;15.52;;
75793;SDS011;64418;47.536;19.074;2023-02-11T10:09:33;33.25;;;16.48;;
75793;SDS011;64418;47.536;19.074;2023-02-11T10:12:12;29.65;;;15.55;;
75793;SDS011;64418;47.536;19.074;2023-02-11T10:15:00;37.80;;;16.60;;
75793;SDS011;64418;47.536;19.074;2023-02-11T10:18:09;37.67;;;17.12;;
75793;SDS011;64418;47.536;19.074;2023-02-11T10:21:20;31.17;;;15.70;;
75793;SDS011;64418;47.536;19.074;2023-02-11T10:23:54;34.42;;;17.33;;
75793;SDS011;64418;47.536;19.074;2023-02-11T10:26:25;36.35;;;16.33;;
75793;SDS011;64418;47.536;19.074;2023-02-11T10:28:54;38.42;;;17.48;;
75793;SDS011;64418;47.536;19.074;2023-02-11T10:31:25;32.45;;;16.52;;
75793;SDS011;64418;47.536;19.074;2023-02-11T10:34:00;32.33;;;16.37;;
75793;SDS011;64418;47.536;19.074;2023-02-11T10:36:30;35.33;;;17.47;;
75793;SDS011;64418;47.536;19.074;2023-02-11T10:38:59;32.72;;;17.92;;
75793;SDS011;64418;47.536;19.074;2023-02-11T10:41:27;32.38;;;17.02;;
75793;SDS011;64418;47.536;19.074;2023-02-11T10:43:58;35.72;;;18.05;;
75793;SDS011;64418;47.536;19.074;2023-02-11T10:46:28;34.10;;;17.70;;
75793;SDS011;64418;47.536;19.074;2023-02-11T10:48:57;31.50;;;17.00;;
75793;SDS011;64418;47.536;19.074;2023-02-11T10:51:44;33.13;;;17.65;;
75793;SDS011;64418;47.536;19.074;2023-02-11T10:54:29;32.78;;;17.62;;
75793;SDS011;64418;47.536;19.074;2023-02-11T10:56:57;32.75;;;17.27;;
75793;SDS011;64418;47.536;19.074;2023-02-11T10:59:25;35.53;;;19.37;;
75793;SDS011;64418;47.536;19.074;2023-02-11T11:02:19;33.22;;;17.52;;
75793;SDS011;64418;47.536;19.074;2023-02-11T11:04:47;34.78;;;17.55;;
75793;SDS011;64418;47.536;19.074;2023-02-11T11:07:35;33.63;;;18.02;;
75793;SDS011;64418;47.536;19.074;2023-02-11T11:10:24;30.98;;;16.60;;
75793;SDS011;64418;47.536;19.074;2023-02-11T11:13:07;31.97;;;17.17;;
75793;SDS011;64418;47.536;19.074;2023-02-11T11:15:48;34.63;;;18.70;;
75793;SDS011;64418;47.536;19.074;2023-02-11T11:19:18;35.95;;;18.08;;
75793;SDS011;64418;47.536;19.074;2023-02-11T11:21:46;30.73;;;16.48;;
75793;SDS011;64418;47.536;19.074;2023-02-11T11:24:37;35.03;;;17.25;;
75793;SDS011;64418;47.536;19.074;2023-02-11T11:27:16;30.70;;;15.33;;
75793;SDS011;64418;47.536;19.074;2023-02-11T11:30:03;30.37;;;16.83;;
75793;SDS011;64418;47.536;19.074;2023-02-11T11:32:38;34.42;;;16.85;;
75793;SDS011;64418;47.536;19.074;2023-02-11T11:35:16;33.88;;;17.17;;
75793;SDS011;64418;47.536;19.074;2023-02-11T11:37:50;31.30;;;16.05;;
75793;SDS011;64418;47.536;19.074;2023-02-11T11:40:23;32.75;;;16.35;;
75793;SDS011;64418;47.536;19.074;2023-02-11T11:43:17;29.60;;;15.00;;
75793;SDS011;64418;47.536;19.074;2023-02-11T11:46:03;31.87;;;15.93;;
75793;SDS011;64418;47.536;19.074;2023-02-11T11:48:30;30.33;;;14.50;;
75793;SDS011;64418;47.536;19.074;2023-02-11T11:51:00;29.17;;;13.60;;
75793;SDS011;64418;47.536;19.074;2023-02-11T11:53:30;29.00;;;13.93;;
75793;SDS011;64418;47.536;19.074;2023-02-11T11:56:04;27.45;;;12.80;;
75793;SDS011;64418;47.536;19.074;2023-02-11T11:58:35;27.83;;;12.67;;
75793;SDS011;64418;47.536;19.074;2023-02-11T12:01:24;28.20;;;12.37;;
75793;SDS011;64418;47.536;19.074;2023-02-11T12:04:12;24.25;;;12.68;;
75793;SDS011;64418;47.536;19.074;2023-02-11T12:07:16;26.58;;;13.13;;
75793;SDS011;64418;47.536;19.074;2023-02-11T12:09:53;27.25;;;12.37;;
75793;SDS011;64418;47.536;19.074;2023-02-11T12:12:37;27.87;;;12.55;;
75793;SDS011;64418;47.536;19.074;2023-02-11T12:15:12;27.43;;;12.47;;
75793;SDS011;64418;47.536;19.074;2023-02-11T12:18:02;28.27;;;12.03;;
75793;SDS011;64418;47.536;19.074;2023-02-11T12:20:42;24.67;;;11.25;;
75793;SDS011;64418;47.536;19.074;2023-02-11T12:23:34;26.80;;;12.85;;
75793;SDS011;64418;47.536;19.074;2023-02-11T12:26:12;28.23;;;12.60;;
75793;SDS011;64418;47.536;19.074;2023-02-11T12:28:43;26.87;;;11.65;;
75793;SDS011;64418;47.536;19.074;2023-02-11T12:31:46;25.43;;;10.93;;
75793;SDS011;64418;47.536;19.074;2023-02-11T12:34:32;26.90;;;11.07;;
75793;SDS011;64418;47.536;19.074;2023-02-11T12:37:20;26.02;;;12.00;;
75793;SDS011;64418;47.536;19.074;2023-02-11T12:40:01;31.98;;;15.38;;
75793;SDS011;64418;47.536;19.074;2023-02-11T12:42:49;25.27;;;11.80;;
75793;SDS011;64418;47.536;19.074;2023-02-11T12:45:29;23.90;;;10.77;;
75793;SDS011;64418;47.536;19.074;2023-02-11T12:48:19;23.97;;;10.20;;
75793;SDS011;64418;47.536;19.074;2023-02-11T12:50:53;26.27;;;12.23;;
75793;SDS011;64418;47.536;19.074;2023-02-11T12:53:31;23.95;;;10.27;;
75793;SDS011;64418;47.536;19.074;2023-02-11T12:56:31;24.95;;;12.43;;
75793;SDS011;64418;47.536;19.074;2023-02-11T12:59:28;24.10;;;10.73;;
75793;SDS011;64418;47.536;19.074;2023-02-11T13:02:03;22.23;;;10.10;;
75793;SDS011;64418;47.536;19.074;2023-02-11T13:04:36;20.48;;;9.82;;
75793;SDS011;64418;47.536;19.074;2023-02-11T13:07:09;23.85;;;11.60;;
75793;SDS011;64418;47.536;19.074;2023-02-11T13:10:00;24.12;;;11.50;;
75793;SDS011;64418;47.536;19.074;2023-02-11T13:12:49;23.85;;;11.25;;
75793;SDS011;64418;47.536;19.074;2023-02-11T13:15:17;23.07;;;11.53;;
75793;SDS011;64418;47.536;19.074;2023-02-11T13:17:47;22.10;;;11.63;;
75793;SDS011;64418;47.536;19.074;2023-02-11T13:20:25;19.95;;;9.38;;
75793;SDS011;64418;47.536;19.074;2023-02-11T13:23:00;20.15;;;10.13;;
75793;SDS011;64418;47.536;19.074;2023-02-11T13:25:52;19.33;;;10.57;;
75793;SDS011;64418;47.536;19.074;2023-02-11T13:28:44;21.45;;;9.63;;
75793;SDS011;64418;47.536;19.074;2023-02-11T13:31:15;19.80;;;9.10;;
75793;SDS011;64418;47.536;19.074;2023-02-11T13:34:03;20.98;;;8.60;;
75793;SDS011;64418;47.536;19.074;2023-02-11T13:36:52;17.95;;;8.60;;
75793;SDS011;64418;47.536;19.074;2023-02-11T13:39:19;18.52;;;8.43;;
75793;SDS011;64418;47.536;19.074;2023-02-11T13:41:49;19.52;;;9.50;;
75793;SDS011;64418;47.536;19.074;2023-02-11T13:44:26;25.03;;;10.73;;
75793;SDS011;64418;47.536;19.074;2023-02-11T13:46:56;21.77;;;9.83;;
75793;SDS011;64418;47.536;19.074;2023-02-11T13:49:26;20.88;;;9.93;;
75793;SDS011;64418;47.536;19.074;2023-02-11T13:51:55;22.37;;;10.00;;
75793;SDS011;64418;47.536;19.074;2023-02-11T13:54:28;19.90;;;8.27;;
75793;SDS011;64418;47.536;19.074;2023-02-11T14:03:35;21.87;;;9.32;;
75793;SDS011;64418;47.536;19.074;2023-02-11T14:06:25;23.48;;;9.27;;
75793;SDS011;64418;47.536;19.074;2023-02-11T14:08:58;22.83;;;10.35;;
75793;SDS011;64418;47.536;19.074;2023-02-11T14:11:51;23.52;;;9.63;;
75793;SDS011;64418;47.536;19.074;2023-02-11T14:14:19;21.70;;;9.03;;
75793;SDS011;64418;47.536;19.074;2023-02-11T14:20:31;20.73;;;9.10;;
75793;SDS011;64418;47.536;19.074;2023-02-11T14:23:22;19.27;;;8.75;;
75793;SDS011;64418;47.536;19.074;2023-02-11T14:26:31;18.30;;;9.02;;
75793;SDS011;64418;47.536;19.074;2023-02-11T14:29:06;21.87;;;9.77;;
75793;SDS011;64418;47.536;19.074;2023-02-11T14:32:04;21.23;;;9.63;;
75793;SDS011;64418;47.536;19.074;2023-02-11T14:35:01;19.92;;;9.93;;
75793;SDS011;64418;47.536;19.074;2023-02-11T14:37:36;21.30;;;9.45;;
75793;SDS011;64418;47.536;19.074;2023-02-11T14:40:13;17.30;;;8.90;;
75793;SDS011;64418;47.536;19.074;2023-02-11T14:42:45;25.20;;;10.25;;
75793;SDS011;64418;47.536;19.074;2023-02-11T14:45:33;17.47;;;7.23;;
75793;SDS011;64418;47.536;19.074;2023-02-11T14:48:21;23.60;;;12.40;;
75793;SDS011;64418;47.536;19.074;2023-02-11T14:50:53;16.15;;;7.28;;
75793;SDS011;64418;47.536;19.074;2023-02-11T14:53:25;17.02;;;8.73;;
75793;SDS011;64418;47.536;19.074;2023-02-11T14:55:57;24.98;;;9.75;;
75793;SDS011;64418;47.536;19.074;2023-02-11T14:58:24;22.95;;;10.27;;
75793;SDS011;64418;47.536;19.074;2023-02-11T15:00:53;22.13;;;10.60;;
75793;SDS011;64418;47.536;19.074;2023-02-11T15:03:41;25.48;;;9.93;;
75793;SDS011;64418;47.536;19.074;2023-02-11T15:06:14;24.98;;;10.43;;
75793;SDS011;64418;47.536;19.074;2023-02-11T15:08:43;26.25;;;10.80;;
75793;SDS011;64418;47.536;19.074;2023-02-11T15:11:33;28.83;;;12.88;;
75793;SDS011;64418;47.536;19.074;2023-02-11T15:14:07;29.50;;;13.03;;
75793;SDS011;64418;47.536;19.074;2023-02-11T15:16:38;24.48;;;11.27;;
75793;SDS011;64418;47.536;19.074;2023-02-11T15:19:06;38.17;;;14.02;;
75793;SDS011;64418;47.536;19.074;2023-02-11T15:22:00;23.25;;;11.82;;
75793;SDS011;64418;47.536;19.074;2023-02-11T15:24:29;27.13;;;13.23;;